KPAM/PAM METAR and TAF weather

Enter ICAO airport designator
Station Type Date Time Source
KPAM METAR 2018/12/15 23:36 UTC NOAA

KPAM 152336Z AUTO 32008KT 10SM BKN048 BKN055 15/11 A3004 RMK AO2 SLP176 $


Station Type Date Time Source
KPAM Decoded METAR 2018/12/15 23:36 UTC NOAA

Tyndall Air Force Base, FL, United States (KPAM) 30-04N 085-35W 13M
Dec 15, 2018 - 06:36 PM EST / 2018.12.15 2336 UTC
Wind: from the NW (320 degrees) at 9 MPH (8 KT):0
Visibility: 10 mile(s):0
Sky conditions: mostly cloudy
Temperature: 59 F (15 C)
Dew Point: 51 F (11 C)
Relative Humidity: 76%
Pressure (altimeter): 30.04 in. Hg (1017 hPa)
ob: KPAM 152336Z AUTO 32008KT 10SM BKN048 BKN055 15/11 A3004 RMK AO2 SLP176
cycle: 23

Station Type Date Time Source
KPAM TAF 2018/12/15 23:42 UTC NOAA

TAF
AMD KPAM 152337Z 1523/1701 30010KT 9999 SCT035 QNH2997INS
BECMG 1602/1603 31009KT 9999 BKN018 QNH3006INS
BECMG 1614/1615 33009KT 9999 BKN012 BKN025 QNH3014INS TX16/1523Z TN10/1610Z


Example: see airport list